Disclaimer

Please do not use the information listed here in-flight or in-navigation, as they are not provided to us by the airports but are provided by volunteers, so they might be outdated.

Search


Regions


Airport information page

No radio frequency information is available.

Airport informations:
Latitude: 28° 48' 10.20" S
Longitude: 024° 45' 54.60" E
Elevation: 3950 feet - 1204 meters
Operating hours: Remarks
Operating agency: Civil government, landing fees and diplomatic clearance may be required
Timezone: UTC+2
Fuel: Jet A1, without icing nhibitor.

100/130 MIL Spec, low lead, aviation gasoline (BLUE)

Runway information:
02/20 - 9843 x 150 feet< - >3000 x 46 meters
10/28 - 8002 x 148 feet< - >2439 x 45 meters

Recent METARs:
FAKM 130300Z 35011KT CAVOK 24/M01 Q1018
FAKM 130400Z 35010KT CAVOK 24/M01 Q1019
FAKM 130400Z 35010KT CAVOK 24/M01 Q1019

Airport on the map: